Time,TemperatureF,DewpointF,PressureIn,WindDirection,WindDirectionDegrees,WindSpeedMPH,WindSpeedGustMPH,Humidity,HourlyPrecipIn,Conditions,Clouds,dailyrainin,SolarRadiationWatts/m^2,SoftwareType,DateUTC
2013-08-12 00:04:00,80.8,77.6,30.00,SSE,162,3.5,3.5,90,0.00,RA,SKC,0.00,0.0,WeatherDisplay:10.37,2013-08-12 05:04:00,
2013-08-12 00:09:00,80.8,77.6,30.00,SSE,148,5.8,5.8,90,0.00,RA,SKC,0.00,0.0,WeatherDisplay:10.37,2013-08-12 05:09:00,
2013-08-12 00:14:00,80.8,77.6,30.00,SSE,151,4.6,4.6,90,0.00,CLR,SKC,0.00,0.0,WeatherDisplay:10.37,2013-08-12 05:14:00,
2013-08-12 00:19:00,80.7,77.5,30.00,SE,144,3.5,3.5,90,0.00,CLR,SKC,0.00,0.0,WeatherDisplay:10.37,2013-08-12 05:19:00,
2013-08-12 00:24:00,80.7,77.5,30.00,SSE,150,4.6,4.6,90,0.00,CLR,SKC,0.00,0.0,WeatherDisplay:10.37,2013-08-12 05:24:00,
2013-08-12 00:29:00,80.7,77.5,30.00,SE,132,5.8,5.8,90,0.00,CLR,SKC,0.00,0.0,WeatherDisplay:10.37,2013-08-12 05:29:00,
2013-08-12 00:34:00,80.7,77.5,30.00,East,94,4.6,4.6,90,0.00,CLR,SKC,0.00,0.0,WeatherDisplay:10.37,2013-08-12 05:34:00,
2013-08-12 00:39:00,80.8,77.6,30.00,SE,146,4.6,4.6,90,0.00,CLR,SKC,0.00,0.0,WeatherDisplay:10.37,2013-08-12 05:39:00,
2013-08-12 00:44:00,80.8,77.6,30.00,SSE,150,4.6,4.6,90,0.00,CLR,SKC,0.00,0.0,WeatherDisplay:10.37,2013-08-12 05:44:00,
2013-08-12 00:49:00,80.8,77.6,30.00,SE,134,5.8,5.8,90,0.00,CLR,SKC,0.00,0.0,WeatherDisplay:10.37,2013-08-12 05:49:00,
2013-08-12 00:54:00,80.8,77.6,30.00,SSE,148,5.8,5.8,90,0.00,CLR,SKC,0.00,0.0,WeatherDisplay:10.37,2013-08-12 05:54:00,
2013-08-12 00:59:00,80.8,77.6,30.00,ESE,117,5.8,5.8,90,0.00,CLR,SKC,0.00,0.0,WeatherDisplay:10.37,2013-08-12 05:59:00,
2013-08-12 01:04:00,80.8,77.6,30.00,SE,146,6.0,6.0,90,0.00,CLR,SKC,0.00,0.0,WeatherDisplay:10.37,2013-08-12 06:04:00,
2013-08-12 01:09:00,80.7,77.5,30.00,SE,145,4.6,4.6,90,0.00,CLR,SKC,0.00,0.0,WeatherDisplay:10.37,2013-08-12 06:09:00,
2013-08-12 01:14:00,80.7,77.5,29.99,SE,132,4.6,4.6,90,0.00,CLR,SKC,0.00,0.0,WeatherDisplay:10.37,2013-08-12 06:14:00,
2013-08-12 01:19:00,80.7,77.5,29.99,SSE,148,5.8,5.8,90,0.00,CLR,SKC,0.00,0.0,WeatherDisplay:10.37,2013-08-12 06:19:00,
2013-08-12 01:24:00,80.6,77.7,29.99,SE,126,4.6,4.6,91,0.00,CLR,SKC,0.00,0.0,WeatherDisplay:10.37,2013-08-12 06:24:00,
2013-08-12 01:29:00,80.6,77.7,29.99,SSE,150,5.8,5.8,91,0.00,CLR,SKC,0.00,0.0,WeatherDisplay:10.37,2013-08-12 06:29:00,
2013-08-12 01:34:00,80.6,77.7,29.99,South,190,4.6,4.6,91,0.00,CLR,SKC,0.00,0.0,WeatherDisplay:10.37,2013-08-12 06:34:00,
2013-08-12 01:39:00,80.6,77.7,29.99,SSE,159,3.5,3.5,91,0.00,CLR,SKC,0.00,0.0,WeatherDisplay:10.37,2013-08-12 06:39:00,
2013-08-12 01:44:00,80.6,77.7,29.99,SSE,149,3.0,3.0,91,0.00,CLR,SKC,0.00,0.0,WeatherDisplay:10.37,2013-08-12 06:44:00,
2013-08-12 01:49:00,80.6,77.7,29.99,SSW,202,2.3,2.3,91,0.00,CLR,SKC,0.00,0.0,WeatherDisplay:10.37,2013-08-12 06:49:00,
2013-08-12 01:54:00,80.6,77.7,29.99,SSW,192,3.0,3.0,91,0.00,CLR,SKC,0.00,0.0,WeatherDisplay:10.37,2013-08-12 06:54:00,
2013-08-12 01:59:00,80.5,77.6,29.99,South,175,5.0,5.0,91,0.00,CLR,SKC,0.00,0.0,WeatherDisplay:10.37,2013-08-12 06:59:00,
2013-08-12 02:04:00,80.3,77.4,29.99,SSW,206,3.5,3.5,91,0.00,CLR,SKC,0.00,0.0,WeatherDisplay:10.37,2013-08-12 07:04:00,
2013-08-12 02:09:00,80.2,77.3,29.99,SSE,167,2.3,2.3,91,0.00,CLR,SKC,0.00,0.0,WeatherDisplay:10.37,2013-08-12 07:09:00,
2013-08-12 02:14:00,80.2,77.3,29.99,SSE,163,3.5,3.5,91,0.00,CLR,SKC,0.00,0.0,WeatherDisplay:10.37,2013-08-12 07:14:00,
2013-08-12 02:19:00,80.1,77.2,29.99,SSW,200,3.5,3.5,91,0.00,CLR,SKC,0.00,0.0,WeatherDisplay:10.37,2013-08-12 07:19:00,
2013-08-12 02:24:00,80.1,77.2,29.99,SSE,157,3.5,3.5,91,0.00,CLR,SKC,0.00,0.0,WeatherDisplay:10.37,2013-08-12 07:24:00,
2013-08-12 02:29:00,80.1,77.2,29.99,SSE,161,3.5,3.5,91,0.00,CLR,SKC,0.00,0.0,WeatherDisplay:10.37,2013-08-12 07:29:00,
2013-08-12 02:34:00,80.0,77.1,29.99,South,170,1.2,1.2,91,0.00,CLR,SKC,0.00,0.0,WeatherDisplay:10.37,2013-08-12 07:34:00,
2013-08-12 02:39:00,79.9,77.0,29.99,SSE,165,1.2,1.2,91,0.00,CLR,SKC,0.00,0.0,WeatherDisplay:10.37,2013-08-12 07:39:00,
2013-08-12 02:44:00,79.8,76.9,29.99,SSE,153,3.5,3.5,91,0.00,CLR,SKC,0.00,0.0,WeatherDisplay:10.37,2013-08-12 07:44:00,
2013-08-12 02:49:00,79.8,77.3,29.99,SSE,167,3.5,3.5,92,0.00,CLR,SKC,0.00,0.0,WeatherDisplay:10.37,2013-08-12 07:49:00,
2013-08-12 02:54:00,79.8,77.3,29.99,South,178,5.8,5.8,92,0.00,CLR,SKC,0.00,0.0,WeatherDisplay:10.37,2013-08-12 07:54:00,
2013-08-12 02:59:00,79.8,77.3,29.99,SSW,205,4.6,4.6,92,0.00,CLR,SKC,0.00,0.0,WeatherDisplay:10.37,2013-08-12 07:59:00,
2013-08-12 03:04:00,79.8,77.3,29.99,SE,144,4.6,4.6,92,0.00,CLR,SKC,0.00,0.0,WeatherDisplay:10.37,2013-08-12 08:04:00,
2013-08-12 03:09:00,79.8,77.3,29.99,SSE,161,5.8,5.8,92,0.00,CLR,SKC,0.00,0.0,WeatherDisplay:10.37,2013-08-12 08:09:00,
2013-08-12 03:14:00,79.8,77.3,29.98,South,169,3.5,3.5,92,0.00,CLR,SKC,0.00,0.0,WeatherDisplay:10.37,2013-08-12 08:14:00,
2013-08-12 03:19:00,79.8,77.3,29.98,SSE,152,5.0,5.0,92,0.00,CLR,SKC,0.00,0.0,WeatherDisplay:10.37,2013-08-12 08:19:00,
2013-08-12 03:24:00,79.8,77.3,29.98,SSE,157,4.0,4.0,92,0.00,CLR,SKC,0.00,0.0,WeatherDisplay:10.37,2013-08-12 08:24:00,
2013-08-12 03:29:00,79.7,77.2,29.98,WSW,240,3.5,3.5,92,0.00,CLR,SKC,0.00,0.0,WeatherDisplay:10.37,2013-08-12 08:29:00,
2013-08-12 03:34:00,79.6,77.1,29.98,SSW,201,3.5,3.5,92,0.00,CLR,SKC,0.00,0.0,WeatherDisplay:10.37,2013-08-12 08:34:00,
2013-08-12 03:39:00,79.6,77.1,29.98,SSE,153,3.5,3.5,92,0.00,CLR,SKC,0.00,0.0,WeatherDisplay:10.37,2013-08-12 08:39:00,
2013-08-12 03:44:00,79.6,76.7,29.97,South,169,4.6,4.6,91,0.00,CLR,SKC,0.00,0.0,WeatherDisplay:10.37,2013-08-12 08:44:00,
2013-08-12 03:49:00,79.5,76.6,29.97,SE,144,3.0,3.0,91,0.00,CLR,SKC,0.00,0.0,WeatherDisplay:10.37,2013-08-12 08:49:00,
2013-08-12 03:54:00,79.5,76.6,29.97,SSE,150,1.2,1.2,91,0.00,CLR,SKC,0.00,0.0,WeatherDisplay:10.37,2013-08-12 08:54:00,
2013-08-12 03:59:00,79.5,76.6,29.98,South,174,2.3,2.3,91,0.00,CLR,SKC,0.00,0.0,WeatherDisplay:10.37,2013-08-12 08:59:00,
2013-08-12 04:04:00,79.4,76.5,29.98,SSE,165,5.8,5.8,91,0.00,CLR,SKC,0.00,0.0,WeatherDisplay:10.37,2013-08-12 09:04:00,
2013-08-12 04:09:00,79.4,76.5,29.98,South,185,3.5,3.5,91,0.00,CLR,SKC,0.00,0.0,WeatherDisplay:10.37,2013-08-12 09:09:00,
2013-08-12 04:14:00,79.4,76.5,29.98,SSE,167,2.3,2.3,91,0.00,CLR,SKC,0.00,0.0,WeatherDisplay:10.37,2013-08-12 09:14:00,
2013-08-12 04:19:00,79.4,76.5,29.98,WSW,239,2.3,2.3,91,0.00,CLR,SKC,0.00,0.0,WeatherDisplay:10.37,2013-08-12 09:19:00,
2013-08-12 04:24:00,79.4,76.5,29.98,SSE,161,3.5,3.5,91,0.00,CLR,SKC,0.00,0.0,WeatherDisplay:10.37,2013-08-12 09:24:00,
2013-08-12 04:29:00,79.3,76.4,29.98,SSE,163,3.5,3.5,91,0.00,CLR,SKC,0.00,0.0,WeatherDisplay:10.37,2013-08-12 09:29:00,
2013-08-12 04:34:00,79.3,76.4,29.98,SSE,148,1.2,1.2,91,0.00,CLR,SKC,0.00,0.0,WeatherDisplay:10.37,2013-08-12 09:34:00,
2013-08-12 04:39:00,79.3,76.4,29.98,SSW,202,3.5,3.5,91,0.00,CLR,SKC,0.00,0.0,WeatherDisplay:10.37,2013-08-12 09:39:00,
2013-08-12 04:44:00,79.3,76.4,29.98,South,180,2.3,2.3,91,0.00,CLR,SKC,0.00,0.0,WeatherDisplay:10.37,2013-08-12 09:44:00,
2013-08-12 04:49:00,79.2,76.3,29.98,SE,145,3.5,3.5,91,0.00,CLR,SKC,0.00,0.0,WeatherDisplay:10.37,2013-08-12 09:49:00,
2013-08-12 04:54:00,79.2,76.3,29.98,South,170,3.5,3.5,91,0.00,CLR,SKC,0.00,0.0,WeatherDisplay:10.37,2013-08-12 09:54:00,
2013-08-12 04:59:00,79.2,76.7,29.98,South,175,3.5,3.5,92,0.00,CLR,SKC,0.00,0.0,WeatherDisplay:10.37,2013-08-12 09:59:00,
2013-08-12 05:04:00,79.2,76.7,29.98,SW,227,3.5,3.5,92,0.00,CLR,SKC,0.00,0.0,WeatherDisplay:10.37,2013-08-12 10:04:00,
2013-08-12 05:09:00,79.3,76.8,29.98,South,172,1.2,1.2,92,0.00,CLR,SKC,0.00,0.0,WeatherDisplay:10.37,2013-08-12 10:09:00,
2013-08-12 05:14:00,79.3,76.8,29.98,South,179,1.2,1.2,92,0.00,CLR,SKC,0.00,0.0,WeatherDisplay:10.37,2013-08-12 10:14:00,
2013-08-12 05:19:00,79.3,76.8,29.98,South,179,1.2,1.2,92,0.00,CLR,SKC,0.00,0.0,WeatherDisplay:10.37,2013-08-12 10:19:00,
2013-08-12 05:24:00,79.2,76.7,29.98,South,180,1.0,1.0,92,0.00,CLR,SKC,0.00,0.0,WeatherDisplay:10.37,2013-08-12 10:24:00,
2013-08-12 05:29:00,79.2,76.7,29.98,SSW,194,1.2,1.2,92,0.00,CLR,SKC,0.00,0.0,WeatherDisplay:10.37,2013-08-12 10:29:00,
2013-08-12 05:34:00,79.2,76.7,29.98,SSW,194,0.0,0.0,92,0.00,CLR,SKC,0.00,0.0,WeatherDisplay:10.37,2013-08-12 10:34:00,
2013-08-12 05:39:00,79.1,76.6,29.98,South,185,2.3,2.3,92,0.00,CLR,SKC,0.00,0.0,WeatherDisplay:10.37,2013-08-12 10:39:00,
2013-08-12 05:44:00,79.1,76.6,29.98,South,186,0.0,0.0,92,0.00,CLR,SKC,0.00,0.0,WeatherDisplay:10.37,2013-08-12 10:44:00,
2013-08-12 05:49:00,79.1,76.6,29.98,South,186,2.3,2.3,92,0.00,CLR,SKC,0.00,0.0,WeatherDisplay:10.37,2013-08-12 10:49:00,
2013-08-12 05:54:00,79.1,76.6,29.98,South,186,1.2,1.2,92,0.00,CLR,SKC,0.00,0.0,WeatherDisplay:10.37,2013-08-12 10:54:00,
2013-08-12 05:59:00,79.0,76.5,29.98,South,184,3.5,3.5,92,0.00,CLR,SKC,0.00,0.0,WeatherDisplay:10.37,2013-08-12 10:59:00,
2013-08-12 06:04:00,79.0,76.5,29.98,SSE,157,3.5,3.5,92,0.00,CLR,SKC,0.00,0.0,WeatherDisplay:10.37,2013-08-12 11:04:00,
2013-08-12 06:09:00,78.9,76.4,29.98,SSE,168,0.0,0.0,92,0.00,CLR,SKC,0.00,0.0,WeatherDisplay:10.37,2013-08-12 11:09:00,
2013-08-12 06:14:00,78.9,76.4,29.99,South,175,1.2,0.0,92,0.00,CLR,SKC,0.00,0.0,WeatherDisplay:10.37,2013-08-12 11:14:00,
2013-08-12 06:19:00,79.0,76.5,29.99,SSW,196,2.3,2.3,92,0.00,CLR,SKC,0.00,0.0,WeatherDisplay:10.37,2013-08-12 11:19:00,
2013-08-12 06:24:00,79.0,76.8,29.99,SW,229,1.2,1.2,93,0.00,CLR,SKC,0.00,0.0,WeatherDisplay:10.37,2013-08-12 11:24:00,
2013-08-12 06:29:00,79.1,76.6,29.99,South,176,1.2,1.2,92,0.00,CLR,SKC,0.00,0.0,WeatherDisplay:10.37,2013-08-12 11:29:00,
2013-08-12 06:34:00,79.1,76.6,29.99,SE,140,2.3,2.3,92,0.00,CLR,SKC,0.00,0.0,WeatherDisplay:10.37,2013-08-12 11:34:00,
2013-08-12 06:39:00,79.0,76.5,29.99,SW,219,1.2,0.0,92,0.00,CLR,SKC,0.00,0.0,WeatherDisplay:10.37,2013-08-12 11:39:00,
2013-08-12 06:44:00,79.1,76.9,29.99,SW,214,1.2,1.2,93,0.00,CLR,SKC,0.00,0.0,WeatherDisplay:10.37,2013-08-12 11:44:00,
2013-08-12 06:49:00,79.1,76.6,29.99,SW,214,1.2,0.0,92,0.00,CLR,SKC,0.00,0.0,WeatherDisplay:10.37,2013-08-12 11:49:00,
2013-08-12 06:54:00,79.0,76.5,29.99,SW,214,0.0,0.0,92,0.00,CLR,SKC,0.00,0.0,WeatherDisplay:10.37,2013-08-12 11:54:00,
2013-08-12 06:59:00,79.0,76.8,30.00,SSW,198,1.2,1.2,93,0.00,CLR,SKC,0.00,5.0,WeatherDisplay:10.37,2013-08-12 11:59:00,
2013-08-12 07:04:00,79.1,76.9,30.00,SSW,198,0.0,0.0,93,0.00,CLR,SKC,0.00,9.0,WeatherDisplay:10.37,2013-08-12 12:04:00,
2013-08-12 07:09:00,79.0,76.8,30.00,South,190,0.0,0.0,93,0.00,CLR,SKC,0.00,16.0,WeatherDisplay:10.37,2013-08-12 12:09:00,
2013-08-12 07:14:00,79.1,76.9,30.00,South,187,0.0,0.0,93,0.00,CLR,SKC,0.00,25.0,WeatherDisplay:10.37,2013-08-12 12:14:00,
2013-08-12 07:19:00,79.2,77.0,30.00,South,187,0.0,0.0,93,0.00,CLR,SKC,0.00,37.0,WeatherDisplay:10.37,2013-08-12 12:19:00,
2013-08-12 07:24:00,79.3,77.1,30.00,South,190,0.0,0.0,93,0.00,CLR,SKC,0.00,51.0,WeatherDisplay:10.37,2013-08-12 12:24:00,
2013-08-12 07:29:00,79.4,77.2,30.00,South,190,0.0,0.0,93,0.00,CLR,SKC,0.00,65.0,WeatherDisplay:10.37,2013-08-12 12:29:00,
2013-08-12 07:34:00,79.6,77.4,30.00,South,191,0.0,0.0,93,0.00,CLR,SKC,0.00,76.0,WeatherDisplay:10.37,2013-08-12 12:34:00,
2013-08-12 07:39:00,79.9,77.7,30.00,South,191,0.0,0.0,93,0.00,CLR,SKC,0.00,77.0,WeatherDisplay:10.37,2013-08-12 12:39:00,
2013-08-12 07:44:00,80.1,77.9,30.00,South,191,0.0,0.0,93,0.00,CLR,SKC,0.00,70.0,WeatherDisplay:10.37,2013-08-12 12:44:00,
2013-08-12 07:49:00,80.4,78.2,30.00,South,191,0.0,0.0,93,0.00,CLR,SKC,0.00,62.0,WeatherDisplay:10.37,2013-08-12 12:49:00,
2013-08-12 07:54:00,80.7,78.5,29.99,South,191,0.0,0.0,93,0.00,CLR,SKC,0.00,54.0,WeatherDisplay:10.37,2013-08-12 12:54:00,
2013-08-12 07:59:00,81.0,78.5,29.99,South,191,0.0,0.0,92,0.00,CLR,SKC,0.00,54.0,WeatherDisplay:10.37,2013-08-12 12:59:00,
2013-08-12 08:04:00,81.3,78.8,29.99,South,191,0.0,0.0,92,0.00,CLR,SKC,0.00,58.0,WeatherDisplay:10.37,2013-08-12 13:04:00,
2013-08-12 08:09:00,81.7,78.8,29.99,South,191,0.0,0.0,91,0.00,CLR,SKC,0.00,72.0,WeatherDisplay:10.37,2013-08-12 13:09:00,
2013-08-12 08:14:00,82.0,78.8,29.99,South,191,0.0,0.0,90,0.00,CLR,SKC,0.00,125.0,WeatherDisplay:10.37,2013-08-12 13:14:00,
2013-08-12 08:19:00,82.3,78.7,29.99,SSW,196,0.0,0.0,89,0.00,CLR,SKC,0.00,193.0,WeatherDisplay:10.37,2013-08-12 13:19:00,
2013-08-12 08:24:00,82.7,79.1,29.99,SSW,196,0.0,0.0,89,0.00,CLR,SKC,0.00,267.0,WeatherDisplay:10.37,2013-08-12 13:24:00,
2013-08-12 08:29:00,83.0,79.1,29.99,SSW,196,0.0,0.0,88,0.00,CLR,SKC,0.00,302.0,WeatherDisplay:10.37,2013-08-12 13:29:00,
2013-08-12 08:34:00,83.2,78.9,29.99,ESE,123,3.0,3.0,87,0.00,CLR,SKC,0.00,306.0,WeatherDisplay:10.37,2013-08-12 13:34:00,
2013-08-12 08:39:00,82.9,77.9,30.00,ESE,117,3.5,3.5,85,0.00,CLR,SKC,0.00,318.0,WeatherDisplay:10.37,2013-08-12 13:39:00,
2013-08-12 08:44:00,82.7,78.1,30.00,East,100,3.5,3.5,86,0.00,CLR,SKC,0.00,343.0,WeatherDisplay:10.37,2013-08-12 13:44:00,
2013-08-12 08:49:00,82.5,77.9,30.00,ESE,117,3.5,3.5,86,0.00,CLR,SKC,0.00,348.0,WeatherDisplay:10.37,2013-08-12 13:49:00,
2013-08-12 08:54:00,82.7,78.1,30.00,ESE,117,3.5,3.5,86,0.00,CLR,SKC,0.00,367.0,WeatherDisplay:10.37,2013-08-12 13:54:00,
2013-08-12 08:59:00,83.0,78.4,30.00,SE,130,2.3,2.3,86,0.00,CLR,SKC,0.00,383.0,WeatherDisplay:10.37,2013-08-12 13:59:00,
2013-08-12 09:04:00,83.4,78.4,30.00,SSE,163,2.3,2.3,85,0.00,CLR,SKC,0.00,403.0,WeatherDisplay:10.37,2013-08-12 14:04:00,
2013-08-12 09:09:00,83.5,78.2,30.00,ESE,119,3.5,3.5,84,0.00,CLR,SKC,0.00,417.0,WeatherDisplay:10.37,2013-08-12 14:09:00,
2013-08-12 09:14:00,83.7,78.3,30.00,SE,134,2.3,2.3,84,0.00,CLR,SKC,0.00,431.0,WeatherDisplay:10.37,2013-08-12 14:14:00,
2013-08-12 09:19:00,83.7,78.0,30.00,SE,125,3.5,3.5,83,0.00,CLR,SKC,0.00,450.0,WeatherDisplay:10.37,2013-08-12 14:19:00,
2013-08-12 09:24:00,83.6,78.2,30.01,ESE,114,4.6,4.6,84,0.00,CLR,SKC,0.00,469.0,WeatherDisplay:10.37,2013-08-12 14:24:00,
2013-08-12 09:29:00,83.5,78.2,30.01,SE,132,3.5,3.5,84,0.00,CLR,SKC,0.00,485.0,WeatherDisplay:10.37,2013-08-12 14:29:00,
2013-08-12 09:34:00,83.7,78.0,30.01,ESE,113,7.0,7.0,83,0.00,CLR,SKC,0.00,499.0,WeatherDisplay:10.37,2013-08-12 14:34:00,
2013-08-12 09:39:00,83.6,77.9,30.02,ESE,113,5.8,5.8,83,0.00,CLR,SKC,0.00,517.0,WeatherDisplay:10.37,2013-08-12 14:39:00,
2013-08-12 09:44:00,83.5,78.2,30.02,SE,129,8.1,8.1,84,0.00,CLR,SKC,0.00,529.0,WeatherDisplay:10.37,2013-08-12 14:44:00,
2013-08-12 09:49:00,83.6,78.2,30.02,ESE,117,5.8,5.8,84,0.00,CLR,SKC,0.00,545.0,WeatherDisplay:10.37,2013-08-12 14:49:00,
2013-08-12 09:54:00,83.6,77.9,30.02,SE,124,5.8,5.8,83,0.00,CLR,SKC,0.00,561.0,WeatherDisplay:10.37,2013-08-12 14:54:00,
2013-08-12 09:59:00,83.8,78.1,30.02,SE,143,6.9,6.9,83,0.00,CLR,SKC,0.00,575.0,WeatherDisplay:10.37,2013-08-12 14:59:00,
2013-08-12 10:04:00,83.9,77.8,30.02,East,82,7.0,7.0,82,0.00,CLR,SKC,0.00,594.0,WeatherDisplay:10.37,2013-08-12 15:04:00,
2013-08-12 10:09:00,83.5,77.8,30.02,SSE,148,3.5,3.5,83,0.00,CLR,SKC,0.00,608.0,WeatherDisplay:10.37,2013-08-12 15:09:00,
2013-08-12 10:14:00,83.7,78.0,30.02,East,94,5.8,5.8,83,0.00,CLR,SKC,0.00,622.0,WeatherDisplay:10.37,2013-08-12 15:14:00,
2013-08-12 10:19:00,83.8,78.1,30.02,East,97,5.8,5.8,83,0.00,CLR,SKC,0.00,636.0,WeatherDisplay:10.37,2013-08-12 15:19:00,
2013-08-12 10:24:00,84.2,77.7,30.02,ESE,115,6.9,6.9,81,0.00,CLR,SKC,0.00,652.0,WeatherDisplay:10.37,2013-08-12 15:24:00,
2013-08-12 10:29:00,84.2,77.7,30.02,South,171,5.8,5.8,81,0.00,CLR,SKC,0.00,663.0,WeatherDisplay:10.37,2013-08-12 15:29:00,
2013-08-12 10:34:00,84.4,77.9,30.02,SE,144,9.2,9.2,81,0.00,CLR,SKC,0.00,679.0,WeatherDisplay:10.37,2013-08-12 15:34:00,
2013-08-12 10:39:00,84.3,77.8,30.03,SE,134,9.2,9.2,81,0.00,CLR,SKC,0.00,691.0,WeatherDisplay:10.37,2013-08-12 15:39:00,
2013-08-12 10:44:00,84.1,78.0,30.03,East,96,6.9,6.9,82,0.00,CLR,SKC,0.00,705.0,WeatherDisplay:10.37,2013-08-12 15:44:00,
2013-08-12 10:49:00,84.4,78.7,30.03,SE,126,4.6,4.6,83,0.00,CLR,SKC,0.00,715.0,WeatherDisplay:10.37,2013-08-12 15:49:00,
2013-08-12 10:54:00,84.6,78.5,30.04,ESE,119,4.6,4.6,82,0.00,CLR,SKC,0.00,729.0,WeatherDisplay:10.37,2013-08-12 15:54:00,
2013-08-12 10:59:00,84.6,78.5,30.04,ESE,119,7.0,7.0,82,0.00,CLR,SKC,0.00,742.0,WeatherDisplay:10.37,2013-08-12 15:59:00,
2013-08-12 11:04:00,84.7,78.2,30.04,SSE,165,5.8,5.8,81,0.00,CLR,SKC,0.00,751.0,WeatherDisplay:10.37,2013-08-12 16:04:00,
2013-08-12 11:09:00,84.9,78.0,30.03,SSE,152,10.4,10.4,80,0.00,CLR,SKC,0.00,763.0,WeatherDisplay:10.37,2013-08-12 16:09:00,
2013-08-12 11:14:00,85.0,78.1,30.03,East,86,6.0,6.0,80,0.00,CLR,SKC,0.00,773.0,WeatherDisplay:10.37,2013-08-12 16:14:00,
2013-08-12 11:19:00,84.8,78.3,30.03,East,100,5.8,5.8,81,0.00,CLR,SKC,0.00,780.0,WeatherDisplay:10.37,2013-08-12 16:19:00,
2013-08-12 11:24:00,84.7,77.8,30.04,East,99,9.0,9.0,80,0.00,CLR,SKC,0.00,793.0,WeatherDisplay:10.37,2013-08-12 16:24:00,
2013-08-12 11:29:00,84.3,77.5,30.04,ESE,102,6.9,6.9,80,0.00,CLR,SKC,0.00,803.0,WeatherDisplay:10.37,2013-08-12 16:29:00,
2013-08-12 11:34:00,84.2,77.4,30.04,ESE,120,8.1,8.1,80,0.00,CLR,SKC,0.00,814.0,WeatherDisplay:10.37,2013-08-12 16:34:00,
2013-08-12 11:39:00,84.3,77.1,30.04,ESE,108,8.1,8.1,79,0.00,CLR,SKC,0.00,819.0,WeatherDisplay:10.37,2013-08-12 16:39:00,
2013-08-12 11:44:00,84.4,76.8,30.04,ENE,76,9.2,9.2,78,0.00,CLR,SKC,0.00,830.0,WeatherDisplay:10.37,2013-08-12 16:44:00,
2013-08-12 11:49:00,84.5,76.1,30.04,SE,130,9.2,9.2,76,0.00,CLR,SKC,0.00,840.0,WeatherDisplay:10.37,2013-08-12 16:49:00,
2013-08-12 11:54:00,85.0,77.0,30.04,ESE,113,6.9,6.9,77,0.00,CLR,SKC,0.00,846.0,WeatherDisplay:10.37,2013-08-12 16:54:00,
2013-08-12 11:59:00,85.0,77.8,30.04,SE,134,8.1,8.1,79,0.00,CLR,SKC,0.00,854.0,WeatherDisplay:10.37,2013-08-12 16:59:00,
2013-08-12 12:04:00,84.6,77.7,30.04,East,92,8.1,8.1,80,0.00,CLR,SKC,0.00,860.0,WeatherDisplay:10.37,2013-08-12 17:04:00,
2013-08-12 12:09:00,84.1,77.3,30.03,ENE,71,10.4,10.4,80,0.00,CLR,SKC,0.00,868.0,WeatherDisplay:10.37,2013-08-12 17:09:00,
2013-08-12 12:14:00,84.1,78.0,30.03,East,101,9.2,9.2,82,0.00,CLR,SKC,0.00,872.0,WeatherDisplay:10.37,2013-08-12 17:14:00,
2013-08-12 12:19:00,83.9,77.1,30.03,SE,130,7.0,7.0,80,0.00,CLR,SKC,0.00,877.0,WeatherDisplay:10.37,2013-08-12 17:19:00,
2013-08-12 12:24:00,84.0,77.5,30.03,ESE,118,10.4,10.4,81,0.00,CLR,SKC,0.00,884.0,WeatherDisplay:10.37,2013-08-12 17:24:00,
2013-08-12 12:29:00,84.5,78.0,30.03,East,95,10.4,10.4,81,0.00,CLR,SKC,0.00,889.0,WeatherDisplay:10.37,2013-08-12 17:29:00,
2013-08-12 12:34:00,84.5,77.6,30.03,ESE,102,11.5,11.5,80,0.00,CLR,SKC,0.00,893.0,WeatherDisplay:10.37,2013-08-12 17:34:00,
2013-08-12 12:39:00,84.3,78.2,30.03,ESE,119,11.5,11.5,82,0.00,CLR,SKC,0.00,896.0,WeatherDisplay:10.37,2013-08-12 17:39:00,
2013-08-12 12:44:00,84.3,78.2,30.03,ESE,105,6.9,7.0,82,0.00,CLR,SKC,0.00,902.0,WeatherDisplay:10.37,2013-08-12 17:44:00,
2013-08-12 12:49:00,84.3,77.8,30.03,East,91,10.4,10.4,81,0.00,CLR,SKC,0.00,902.0,WeatherDisplay:10.37,2013-08-12 17:49:00,
2013-08-12 12:54:00,84.6,78.5,30.03,ESE,113,6.9,6.9,82,0.00,CLR,SKC,0.00,907.0,WeatherDisplay:10.37,2013-08-12 17:54:00,
2013-08-12 12:59:00,84.7,77.8,30.03,SE,132,11.5,11.5,80,0.00,CLR,SKC,0.00,909.0,WeatherDisplay:10.37,2013-08-12 17:59:00,
2013-08-12 13:04:00,84.8,77.9,30.03,ESE,121,10.4,10.4,80,0.00,CLR,SKC,0.00,912.0,WeatherDisplay:10.37,2013-08-12 18:04:00,
2013-08-12 13:09:00,84.8,77.9,30.03,East,86,9.2,9.2,80,0.00,CLR,SKC,0.00,914.0,WeatherDisplay:10.37,2013-08-12 18:09:00,
2013-08-12 13:15:00,84.7,78.2,30.03,ESE,122,12.0,12.0,81,0.00,CLR,SKC,0.00,914.0,WeatherDisplay:10.37,2013-08-12 18:15:00,
2013-08-12 13:20:00,84.8,78.7,30.03,East,84,9.2,9.2,82,0.00,CLR,SKC,0.00,916.0,WeatherDisplay:10.37,2013-08-12 18:20:00,
2013-08-12 13:25:00,84.3,78.2,30.03,ESE,105,11.5,11.5,82,0.00,CLR,SKC,0.00,914.0,WeatherDisplay:10.37,2013-08-12 18:25:00,
2013-08-12 13:30:00,84.1,78.4,30.03,East,98,10.4,10.4,83,0.00,CLR,SKC,0.00,914.0,WeatherDisplay:10.37,2013-08-12 18:30:00,
2013-08-12 13:35:00,83.8,78.1,30.03,East,85,13.8,13.8,83,0.00,CLR,SKC,0.00,914.0,WeatherDisplay:10.37,2013-08-12 18:35:00,
2013-08-12 13:40:00,84.0,78.6,30.03,ESE,123,9.2,9.2,84,0.00,CLR,SKC,0.00,912.0,WeatherDisplay:10.37,2013-08-12 18:40:00,
2013-08-12 13:45:00,84.3,78.6,30.03,ESE,103,10.4,10.4,83,0.00,CLR,SKC,0.00,911.0,WeatherDisplay:10.37,2013-08-12 18:45:00,
2013-08-12 13:50:00,84.5,78.8,30.03,SE,128,11.5,11.5,83,0.00,CLR,SKC,0.00,912.0,WeatherDisplay:10.37,2013-08-12 18:50:00,
2013-08-12 13:55:00,84.4,78.7,30.02,ESE,113,11.5,11.5,83,0.00,BKN,SKC,0.00,909.0,WeatherDisplay:10.37,2013-08-12 18:55:00,
2013-08-12 14:00:00,84.5,78.8,30.02,East,90,12.7,12.7,83,0.00,BKN,SKC,0.00,909.0,WeatherDisplay:10.37,2013-08-12 19:00:00,
2013-08-12 14:05:00,84.1,78.7,30.02,ENE,75,11.5,11.5,84,0.00,OVC,SKC,0.00,907.0,WeatherDisplay:10.37,2013-08-12 19:05:00,
2013-08-12 14:10:00,83.9,78.9,30.02,East,98,9.2,9.2,85,0.00,OVC,SKC,0.00,902.0,WeatherDisplay:10.37,2013-08-12 19:10:00,
2013-08-12 14:15:00,84.0,79.0,30.02,ENE,74,11.5,11.5,85,0.00,OVC,SKC,0.00,898.0,WeatherDisplay:10.37,2013-08-12 19:15:00,
2013-08-12 14:20:00,84.3,79.3,30.02,ESE,122,11.5,11.5,85,0.00,OVC,SKC,0.00,893.0,WeatherDisplay:10.37,2013-08-12 19:20:00,
2013-08-12 14:25:00,84.5,78.8,30.01,East,94,12.7,12.7,83,0.00,OVC,SKC,0.00,893.0,WeatherDisplay:10.37,2013-08-12 19:25:00,
2013-08-12 14:30:00,84.3,79.3,30.01,East,96,11.5,11.5,85,0.00,OVC,SKC,0.00,886.0,WeatherDisplay:10.37,2013-08-12 19:30:00,
2013-08-12 14:35:00,84.3,78.9,30.01,East,89,11.5,11.5,84,0.00,OVC,SKC,0.00,882.0,WeatherDisplay:10.37,2013-08-12 19:35:00,
2013-08-12 14:40:00,84.5,79.1,30.01,ENE,67,10.0,10.0,84,0.00,OVC,SKC,0.00,875.0,WeatherDisplay:10.37,2013-08-12 19:40:00,
2013-08-12 14:45:00,84.8,79.4,30.01,SE,126,11.5,11.5,84,0.00,OVC,SKC,0.00,868.0,WeatherDisplay:10.37,2013-08-12 19:45:00,
2013-08-12 14:50:00,84.7,79.3,30.01,East,100,11.5,11.5,84,0.00,OVC,SKC,0.00,861.0,WeatherDisplay:10.37,2013-08-12 19:50:00,
2013-08-12 14:55:00,84.4,79.0,30.01,East,96,12.7,12.7,84,0.00,OVC,SKC,0.00,853.0,WeatherDisplay:10.37,2013-08-12 19:55:00,
2013-08-12 15:00:00,84.3,79.3,30.01,East,90,15.0,15.0,85,0.00,OVC,SKC,0.00,847.0,WeatherDisplay:10.37,2013-08-12 20:00:00,
2013-08-12 15:05:00,84.1,79.5,30.01,ENE,77,11.5,11.5,86,0.00,OVC,SKC,0.00,842.0,WeatherDisplay:10.37,2013-08-12 20:05:00,
2013-08-12 15:10:00,84.1,79.1,30.00,ESE,109,13.8,13.8,85,0.00,OVC,SKC,0.00,837.0,WeatherDisplay:10.37,2013-08-12 20:10:00,
2013-08-12 15:15:00,84.0,79.0,30.00,East,86,12.7,12.7,85,0.00,OVC,SKC,0.00,754.0,WeatherDisplay:10.37,2013-08-12 20:15:00,
2013-08-12 15:20:00,83.7,79.1,30.00,East,82,11.5,11.5,86,0.00,OVC,SKC,0.00,802.0,WeatherDisplay:10.37,2013-08-12 20:20:00,
2013-08-12 15:25:00,84.4,79.7,30.00,East,91,11.5,11.5,86,0.00,OVC,SKC,0.00,789.0,WeatherDisplay:10.37,2013-08-12 20:25:00,
2013-08-12 15:30:00,84.5,79.5,30.00,East,85,12.7,12.7,85,0.00,OVC,SKC,0.00,793.0,WeatherDisplay:10.37,2013-08-12 20:30:00,
2013-08-12 15:35:00,84.5,79.5,30.00,ESE,117,13.8,13.8,85,0.00,OVC,SKC,0.00,780.0,WeatherDisplay:10.37,2013-08-12 20:35:00,
2013-08-12 15:40:00,84.4,79.4,30.00,East,94,10.4,10.4,85,0.00,OVC,SKC,0.00,773.0,WeatherDisplay:10.37,2013-08-12 20:40:00,
2013-08-12 15:45:00,84.6,79.6,30.00,ESE,102,12.7,12.7,85,0.00,OVC,SKC,0.00,761.0,WeatherDisplay:10.37,2013-08-12 20:45:00,
2013-08-12 15:50:00,84.5,79.5,30.00,East,85,12.7,12.7,85,0.00,OVC,SKC,0.00,751.0,WeatherDisplay:10.37,2013-08-12 20:50:00,
2013-08-12 15:55:00,84.1,79.1,29.99,East,95,13.8,13.8,85,0.00,OVC,SKC,0.00,737.0,WeatherDisplay:10.37,2013-08-12 20:55:00,
2013-08-12 16:00:00,84.3,79.7,29.99,East,99,13.0,13.0,86,0.00,OVC,SKC,0.00,728.0,WeatherDisplay:10.37,2013-08-12 21:00:00,
2013-08-12 16:05:00,84.2,79.6,29.99,ESE,103,15.0,15.0,86,0.00,OVC,SKC,0.00,714.0,WeatherDisplay:10.37,2013-08-12 21:05:00,
2013-08-12 16:10:00,84.1,79.5,29.98,NE,54,16.1,16.1,86,0.00,OVC,SKC,0.00,701.0,WeatherDisplay:10.37,2013-08-12 21:10:00,
2013-08-12 16:15:00,84.3,79.3,29.98,ESE,108,15.0,15.0,85,0.00,OVC,SKC,0.00,689.0,WeatherDisplay:10.37,2013-08-12 21:15:00,
2013-08-12 16:20:00,84.1,79.5,29.98,East,101,11.5,11.5,86,0.00,OVC,SKC,0.00,680.0,WeatherDisplay:10.37,2013-08-12 21:20:00,
2013-08-12 16:25:00,84.4,79.4,29.97,ESE,117,10.4,10.4,85,0.00,OVC,SKC,0.00,663.0,WeatherDisplay:10.37,2013-08-12 21:25:00,
2013-08-12 16:30:00,84.8,80.1,29.97,East,93,10.4,10.4,86,0.00,OVC,SKC,0.00,654.0,WeatherDisplay:10.37,2013-08-12 21:30:00,
2013-08-12 16:35:00,84.9,79.9,29.97,East,90,12.7,12.7,85,0.00,OVC,SKC,0.00,636.0,WeatherDisplay:10.37,2013-08-12 21:35:00,
2013-08-12 16:40:00,84.9,79.5,29.97,ESE,109,17.3,17.3,84,0.00,OVC,SKC,0.00,624.0,WeatherDisplay:10.37,2013-08-12 21:40:00,
2013-08-12 16:45:00,84.6,79.6,29.97,East,92,15.0,15.0,85,0.00,OVC,SKC,0.00,610.0,WeatherDisplay:10.37,2013-08-12 21:45:00,
2013-08-12 16:50:00,84.5,79.5,29.97,ESE,114,13.8,13.8,85,0.00,OVC,SKC,0.00,592.0,WeatherDisplay:10.37,2013-08-12 21:50:00,
2013-08-12 16:55:00,85.1,80.1,29.96,ESE,113,12.7,12.7,85,0.00,OVC,SKC,0.00,578.0,WeatherDisplay:10.37,2013-08-12 21:55:00,
2013-08-12 17:00:00,85.2,79.8,29.96,ESE,109,13.8,13.8,84,0.00,OVC,SKC,0.00,564.0,WeatherDisplay:10.37,2013-08-12 22:00:00,
2013-08-12 17:05:00,85.1,79.7,29.96,ENE,78,11.5,11.5,84,0.00,BKN,SKC,0.00,552.0,WeatherDisplay:10.37,2013-08-12 22:05:00,
2013-08-12 17:10:00,85.1,79.7,29.96,SE,124,15.0,15.0,84,0.00,BKN,SKC,0.00,536.0,WeatherDisplay:10.37,2013-08-12 22:10:00,
2013-08-12 17:15:00,85.3,80.3,29.96,SE,126,12.7,12.7,85,0.00,BKN,SKC,0.00,520.0,WeatherDisplay:10.37,2013-08-12 22:15:00,
2013-08-12 17:20:00,85.3,79.9,29.96,SE,128,11.5,11.5,84,0.00,BKN,SKC,0.00,503.0,WeatherDisplay:10.37,2013-08-12 22:20:00,
2013-08-12 17:25:00,85.3,79.5,29.95,SSE,151,10.4,10.4,83,0.00,BKN,SKC,0.00,487.0,WeatherDisplay:10.37,2013-08-12 22:25:00,
2013-08-12 17:30:00,85.4,79.6,29.95,ESE,119,15.0,15.0,83,0.00,BKN,SKC,0.00,471.0,WeatherDisplay:10.37,2013-08-12 22:30:00,
2013-08-12 17:35:00,85.4,79.6,29.95,ESE,121,11.5,11.5,83,0.00,BKN,SKC,0.00,455.0,WeatherDisplay:10.37,2013-08-12 22:35:00,
2013-08-12 17:40:00,85.1,79.4,29.95,SE,127,12.7,12.7,83,0.00,BKN,SKC,0.00,439.0,WeatherDisplay:10.37,2013-08-12 22:40:00,
2013-08-12 17:45:00,85.2,79.8,29.95,ESE,114,10.4,10.4,84,0.00,BKN,SKC,0.00,424.0,WeatherDisplay:10.37,2013-08-12 22:45:00,
2013-08-12 17:50:00,85.4,79.6,29.95,ESE,121,13.8,13.8,83,0.00,BKN,SKC,0.00,408.0,WeatherDisplay:10.37,2013-08-12 22:50:00,
2013-08-12 17:56:00,85.2,79.4,29.94,East,90,13.8,13.8,83,0.00,CLR,SKC,0.00,392.0,WeatherDisplay:10.37,2013-08-12 22:56:00,
2013-08-12 18:01:00,85.1,79.4,29.94,ESE,123,11.5,11.5,83,0.00,CLR,SKC,0.00,378.0,WeatherDisplay:10.37,2013-08-12 23:01:00,
2013-08-12 18:06:00,85.1,79.4,29.94,SE,130,9.2,9.2,83,0.00,CLR,SKC,0.00,360.0,WeatherDisplay:10.37,2013-08-12 23:06:00,
2013-08-12 18:11:00,85.0,79.3,29.94,ESE,110,13.8,13.8,83,0.00,CLR,SKC,0.00,332.0,WeatherDisplay:10.37,2013-08-12 23:11:00,
2013-08-12 18:16:00,84.8,79.4,29.94,ESE,107,11.5,11.5,84,0.00,CLR,SKC,0.00,315.0,WeatherDisplay:10.37,2013-08-12 23:16:00,
2013-08-12 18:21:00,84.8,79.4,29.94,SE,138,11.5,11.5,84,0.00,CLR,SKC,0.00,257.0,WeatherDisplay:10.37,2013-08-12 23:21:00,
2013-08-12 18:26:00,84.6,79.2,29.94,ESE,116,12.7,12.7,84,0.00,CLR,SKC,0.00,197.0,WeatherDisplay:10.37,2013-08-12 23:26:00,
2013-08-12 18:31:00,84.5,79.5,29.94,ESE,110,11.5,11.5,85,0.00,CLR,SKC,0.00,174.0,WeatherDisplay:10.37,2013-08-12 23:31:00,
2013-08-12 18:36:00,84.5,79.5,29.94,ESE,104,9.2,9.2,85,0.00,CLR,SKC,0.00,163.0,WeatherDisplay:10.37,2013-08-12 23:36:00,
2013-08-12 18:41:00,84.6,79.6,29.94,East,93,11.5,11.5,85,0.00,CLR,SKC,0.00,128.0,WeatherDisplay:10.37,2013-08-12 23:41:00,
2013-08-12 18:46:00,84.5,79.5,29.94,ESE,115,7.0,7.0,85,0.00,CLR,SKC,0.00,114.0,WeatherDisplay:10.37,2013-08-12 23:46:00,
2013-08-12 18:51:00,84.5,79.5,29.94,SE,132,8.1,8.1,85,0.00,CLR,SKC,0.00,111.0,WeatherDisplay:10.37,2013-08-12 23:51:00,
2013-08-12 18:56:00,84.4,79.4,29.94,SE,130,9.2,9.2,85,0.00,CLR,SKC,0.00,98.0,WeatherDisplay:10.37,2013-08-12 23:56:00,
2013-08-12 19:01:00,84.4,79.4,29.94,ESE,121,9.2,9.2,85,0.00,CLR,SKC,0.00,102.0,WeatherDisplay:10.37,2013-08-13 00:01:00,
2013-08-12 19:06:00,84.3,79.3,29.94,ESE,105,11.5,11.5,85,0.00,CLR,SKC,0.00,105.0,WeatherDisplay:10.37,2013-08-13 00:06:00,
2013-08-12 19:11:00,84.3,79.7,29.94,ESE,118,10.0,10.0,86,0.00,SCT,SKC,0.00,105.0,WeatherDisplay:10.37,2013-08-13 00:11:00,
2013-08-12 19:18:00,84.1,79.5,29.94,East,96,10.4,10.4,86,0.00,CLR,SKC,0.00,104.0,WeatherDisplay:10.37,2013-08-13 00:18:00,
2013-08-12 19:23:00,84.1,79.5,29.94,ESE,111,13.8,13.8,86,0.00,CLR,SKC,0.00,81.0,WeatherDisplay:10.37,2013-08-13 00:23:00,
2013-08-12 19:28:00,84.1,79.5,29.94,ESE,113,9.2,9.2,86,0.00,CLR,SKC,0.00,76.0,WeatherDisplay:10.37,2013-08-13 00:28:00,
2013-08-12 19:33:00,84.1,79.5,29.94,SE,130,10.4,10.4,86,0.00,CLR,SKC,0.00,62.0,WeatherDisplay:10.37,2013-08-13 00:33:00,
2013-08-12 19:38:00,84.0,79.4,29.94,ESE,111,10.4,10.4,86,0.00,CLR,SKC,0.00,47.0,WeatherDisplay:10.37,2013-08-13 00:38:00,
2013-08-12 19:43:00,84.0,79.7,29.93,SE,138,10.4,10.4,87,0.00,CLR,SKC,0.00,35.0,WeatherDisplay:10.37,2013-08-13 00:43:00,
2013-08-12 19:48:00,83.9,79.6,29.93,ESE,113,5.8,5.8,87,0.00,CLR,SKC,0.00,26.0,WeatherDisplay:10.37,2013-08-13 00:48:00,
2013-08-12 19:53:00,83.7,79.4,29.93,SE,129,9.2,9.2,87,0.00,CLR,SKC,0.00,18.0,WeatherDisplay:10.37,2013-08-13 00:53:00,
2013-08-12 19:58:00,83.6,79.3,29.93,SE,128,8.1,8.1,87,0.00,CLR,SKC,0.00,12.0,WeatherDisplay:10.37,2013-08-13 00:58:00,
2013-08-12 20:03:00,83.3,79.4,29.93,ESE,113,6.9,6.9,88,0.00,CLR,SKC,0.00,7.0,WeatherDisplay:10.37,2013-08-13 01:03:00,
2013-08-12 20:08:00,83.2,79.3,29.93,SE,129,11.5,11.5,88,0.00,CLR,SKC,0.00,5.0,WeatherDisplay:10.37,2013-08-13 01:08:00,
2013-08-12 20:13:00,83.1,79.2,29.94,SE,128,10.4,10.4,88,0.00,CLR,SKC,0.00,0.0,WeatherDisplay:10.37,2013-08-13 01:13:00,
2013-08-12 20:18:00,83.0,79.1,29.94,ESE,118,5.8,5.8,88,0.00,CLR,SKC,0.00,0.0,WeatherDisplay:10.37,2013-08-13 01:18:00,
2013-08-12 20:23:00,83.0,79.1,29.94,East,100,5.8,5.8,88,0.00,CLR,SKC,0.00,0.0,WeatherDisplay:10.37,2013-08-13 01:23:00,
2013-08-12 20:28:00,83.0,79.1,29.94,SE,132,9.2,9.2,88,0.00,CLR,SKC,0.00,0.0,WeatherDisplay:10.37,2013-08-13 01:28:00,
2013-08-12 20:33:00,82.8,78.9,29.94,ESE,113,6.9,6.9,88,0.00,CLR,SKC,0.00,0.0,WeatherDisplay:10.37,2013-08-13 01:33:00,
2013-08-12 20:38:00,82.8,79.2,29.94,ESE,119,8.1,8.1,89,0.00,CLR,SKC,0.00,0.0,WeatherDisplay:10.37,2013-08-13 01:38:00,
2013-08-12 20:43:00,82.7,78.8,29.94,ESE,113,10.4,10.4,88,0.00,CLR,SKC,0.00,0.0,WeatherDisplay:10.37,2013-08-13 01:43:00,
2013-08-12 20:48:00,82.7,78.8,29.94,ESE,108,10.4,10.4,88,0.00,CLR,SKC,0.00,0.0,WeatherDisplay:10.37,2013-08-13 01:48:00,
2013-08-12 20:53:00,82.7,79.1,29.94,ESE,115,9.2,9.2,89,0.00,CLR,SKC,0.00,0.0,WeatherDisplay:10.37,2013-08-13 01:53:00,
2013-08-12 20:58:00,82.6,79.0,29.95,East,94,6.9,6.9,89,0.00,CLR,SKC,0.00,0.0,WeatherDisplay:10.37,2013-08-13 01:58:00,
2013-08-12 21:03:00,82.6,79.0,29.95,SE,128,9.2,9.2,89,0.00,CLR,SKC,0.00,0.0,WeatherDisplay:10.37,2013-08-13 02:03:00,
2013-08-12 21:08:00,82.6,79.0,29.95,SE,134,6.9,6.9,89,0.00,CLR,SKC,0.00,0.0,WeatherDisplay:10.37,2013-08-13 02:08:00,
2013-08-12 21:13:00,82.5,78.9,29.95,ESE,112,6.9,6.9,89,0.00,CLR,SKC,0.00,0.0,WeatherDisplay:10.37,2013-08-13 02:13:00,
2013-08-12 21:18:00,82.5,78.9,29.95,ESE,117,5.8,5.8,89,0.00,CLR,SKC,0.00,0.0,WeatherDisplay:10.37,2013-08-13 02:18:00,
2013-08-12 21:23:00,82.5,78.9,29.95,ESE,116,9.2,9.2,89,0.00,CLR,SKC,0.00,0.0,WeatherDisplay:10.37,2013-08-13 02:23:00,
2013-08-12 21:28:00,82.4,78.8,29.96,ESE,121,8.1,8.1,89,0.00,CLR,SKC,0.00,0.0,WeatherDisplay:10.37,2013-08-13 02:28:00,
2013-08-12 21:33:00,82.4,78.8,29.96,SE,134,5.8,5.8,89,0.00,CLR,SKC,0.00,0.0,WeatherDisplay:10.37,2013-08-13 02:33:00,
2013-08-12 21:38:00,82.4,78.8,29.96,ESE,121,10.4,10.4,89,0.00,CLR,SKC,0.00,0.0,WeatherDisplay:10.37,2013-08-13 02:38:00,
2013-08-12 21:43:00,82.4,78.8,29.96,SE,139,9.2,9.2,89,0.00,CLR,SKC,0.00,0.0,WeatherDisplay:10.37,2013-08-13 02:43:00,
2013-08-12 21:48:00,82.3,78.7,29.96,East,100,6.9,6.9,89,0.00,CLR,SKC,0.00,0.0,WeatherDisplay:10.37,2013-08-13 02:48:00,
2013-08-12 21:53:00,82.3,79.1,29.96,ESE,121,6.9,6.9,90,0.00,CLR,SKC,0.00,0.0,WeatherDisplay:10.37,2013-08-13 02:53:00,
2013-08-12 21:58:00,82.3,79.1,29.97,SE,124,6.9,6.9,90,0.00,CLR,SKC,0.00,0.0,WeatherDisplay:10.37,2013-08-13 02:58:00,
2013-08-12 22:03:00,82.2,78.6,29.97,ESE,120,10.4,10.4,89,0.00,CLR,SKC,0.00,0.0,WeatherDisplay:10.37,2013-08-13 03:03:00,
2013-08-12 22:08:00,82.2,79.0,29.97,East,98,5.0,5.0,90,0.00,CLR,SKC,0.00,0.0,WeatherDisplay:10.37,2013-08-13 03:08:00,
2013-08-12 22:13:00,82.3,79.1,29.97,ESE,123,7.0,7.0,90,0.00,CLR,SKC,0.00,0.0,WeatherDisplay:10.37,2013-08-13 03:13:00,
2013-08-12 22:18:00,82.3,79.1,29.97,ESE,118,5.8,5.8,90,0.00,CLR,SKC,0.00,0.0,WeatherDisplay:10.37,2013-08-13 03:18:00,
2013-08-12 22:23:00,82.2,78.6,29.97,SE,134,10.4,10.4,89,0.00,CLR,SKC,0.00,0.0,WeatherDisplay:10.37,2013-08-13 03:23:00,
2013-08-12 22:28:00,82.2,79.0,29.98,SE,127,3.0,4.2,90,0.00,CLR,SKC,0.00,0.0,WeatherDisplay:10.37,2013-08-13 03:28:00,
2013-08-12 22:33:00,82.2,79.0,29.98,ESE,121,6.9,6.9,90,0.00,CLR,SKC,0.00,0.0,WeatherDisplay:10.37,2013-08-13 03:33:00,
2013-08-12 22:38:00,82.2,79.0,29.98,East,101,5.8,5.8,90,0.00,CLR,SKC,0.00,0.0,WeatherDisplay:10.37,2013-08-13 03:38:00,
2013-08-12 22:43:00,82.1,78.9,29.98,ESE,112,6.9,6.9,90,0.00,CLR,SKC,0.00,0.0,WeatherDisplay:10.37,2013-08-13 03:43:00,
2013-08-12 22:48:00,82.1,78.9,29.98,ESE,120,6.9,6.9,90,0.00,CLR,SKC,0.00,0.0,WeatherDisplay:10.37,2013-08-13 03:48:00,
2013-08-12 22:53:00,82.1,78.9,29.98,ESE,123,4.6,4.6,90,0.00,CLR,SKC,0.00,0.0,WeatherDisplay:10.37,2013-08-13 03:53:00,
2013-08-12 22:58:00,82.1,78.9,29.98,SSE,163,4.6,5.2,90,0.00,CLR,SKC,0.00,0.0,WeatherDisplay:10.37,2013-08-13 03:58:00,
2013-08-12 23:01:00,82.1,78.9,29.98,ESE,119,4.6,4.6,90,0.00,CLR,SKC,0.00,0.0,WeatherDisplay:10.37,2013-08-13 04:01:00,
2013-08-12 23:06:00,82.1,78.9,29.98,SE,127,6.0,6.0,90,0.00,CLR,SKC,0.00,0.0,WeatherDisplay:10.37,2013-08-13 04:06:00,
2013-08-12 23:11:00,82.0,78.8,29.98,ESE,118,4.6,4.6,90,0.00,CLR,SKC,0.00,0.0,WeatherDisplay:10.37,2013-08-13 04:11:00,
2013-08-12 23:16:00,82.0,78.8,29.98,ESE,120,6.9,6.9,90,0.00,CLR,SKC,0.00,0.0,WeatherDisplay:10.37,2013-08-13 04:16:00,
2013-08-12 23:21:00,82.0,78.8,29.98,SE,141,6.9,6.9,90,0.00,CLR,SKC,0.00,0.0,WeatherDisplay:10.37,2013-08-13 04:21:00,
2013-08-12 23:26:00,82.0,78.8,29.98,ESE,114,10.4,10.4,90,0.00,CLR,SKC,0.00,0.0,WeatherDisplay:10.37,2013-08-13 04:26:00,
2013-08-12 23:31:00,82.0,78.8,29.98,ESE,120,5.8,5.8,90,0.00,CLR,SKC,0.00,0.0,WeatherDisplay:10.37,2013-08-13 04:31:00,
2013-08-12 23:36:00,82.0,78.8,29.98,SE,126,5.8,5.8,90,0.00,CLR,SKC,0.00,0.0,WeatherDisplay:10.37,2013-08-13 04:36:00,
2013-08-12 23:41:00,81.9,78.7,29.99,SE,140,6.9,6.9,90,0.00,CLR,SKC,0.00,0.0,WeatherDisplay:10.37,2013-08-13 04:41:00,
2013-08-12 23:46:00,81.9,78.7,29.99,SE,127,5.8,5.8,90,0.00,CLR,SKC,0.00,0.0,WeatherDisplay:10.37,2013-08-13 04:46:00,
2013-08-12 23:51:00,81.9,78.7,29.99,ESE,110,5.8,5.8,90,0.00,CLR,SKC,0.00,0.0,WeatherDisplay:10.37,2013-08-13 04:51:00,
2013-08-12 23:56:00,81.8,78.6,29.99,East,94,5.0,5.0,90,0.00,CLR,SKC,0.00,0.0,WeatherDisplay:10.37,2013-08-13 04:56:00,